Track варинская лиза

Time Latitude Longitude Accuracy (66% radius in meters) Altitude (meters) Speed (km/hour) Bearing (degrees) Battery (%) GPS flag
09:46:39 59.740439 30.387857 3 57.800001274542 1.3177137374878 166.89999389648 64 1 delete
09:46:35 59.740473 30.387843 3 57.00000181605 1.3578153848648 178.5 64 1 delete
09:46:29 59.740531 30.387910 3 55.700000493642 1.9177383184433 243.30000305176 64 1 delete
09:46:27 59.740542 30.387962 3 55.000000712027 1.6325194835663 258 64 1 delete
09:46:18 59.740553 30.388158 3 55.100000893872 1.6036214828491 298.39999389648 64 1 delete
09:46:10 59.740546 30.388338 3 57.400000000195 1.6496053934097 274.79998779297 64 1 delete
09:46:01 59.740430 30.389843 136.04315185547 54.299935738613 1.6079609394073 282.50442504883 64 1 delete
09:45:52 59.740445 30.389967 112.05480194092 54.299912769791 1.6404395103455 104.00440979004 64 1 delete
09:45:43 59.740471 30.389787 87.188529968262 54.299933843716 1.7159929275513 202.42108154297 64 1 delete
09:45:34 59.740584 30.389756 62.803245544434 54.299923340795 1.7103776931763 98.921081542969 64 1 delete
10:45:19 59.740593 30.389573 3 54.300000244395 1.6251516342163 271 64 0 delete
09:45:21 59.740593 30.389573 3 54.300000244395 1.6251516342163 271 64 1 delete
09:45:12 59.740586 30.389821 3 55.300000703737 1.8543368577957 270.5 64 1 delete
09:45:06 59.740586 30.389966 3 55.100001076538 1.7201415300369 257.20001220703 64 1 delete
09:45:04 59.740591 30.390009 3 58.50000060403 1.7800071239471 267.39999389648 64 1 delete
09:44:57 59.740605 30.390196 3 57.799999999973 1.7186006307602 266.89999389648 64 1 delete
09:44:52 59.741190 30.390924 154.83114624023 51.400366909638 1.7744734287262 343.08819580078 64 1 delete
09:44:43 59.741097 30.390942 128.66778564453 51.400269576913 1.759890794754 322.96319580078 64 1 delete
09:44:34 59.740970 30.391100 102.00875091553 51.400138537193 1.8378109931946 328.17153930664 64 1 delete
09:44:25 59.740832 30.391183 76.368011474609 51.400053322913 1.7889621257782 331.75485229492 64 1 delete
09:44:16 59.740715 30.391332 50.367362976074 51.400009114856 1.7668824195862 351.67153930664 64 1 delete
09:44:11 59.740638 30.391387 37.332515716553 51.400000119439 1.80541908741 346.25485229492 64 1 delete
09:44:10 59.740623 30.391395 3 51.499999999008 1.9189754724503 261.10000610352 64 1 delete
09:44:03 59.740924 30.392104 84.562713623047 53.900070760558 1.6822823286057 348.50509643555 64 1 delete
09:43:54 59.740788 30.392048 59.797485351562 53.900017432883 1.5799025297165 12.005097389221 64 1 delete
10:43:37 59.740655 30.392081 3 53.999999999502 1.8008300065994 259 64 0 delete
09:43:44 59.740652 30.392059 3 53.899999999228 1.7063791751862 260.70001220703 64 1 delete
09:43:43 59.740655 30.392081 3 53.999999999502 1.8008300065994 259 64 1 delete
09:43:35 59.741052 30.392357 123.19212341309 58.900164644237 1.8371512889862 325.21368408203 64 1 delete
09:43:21 59.740863 30.392382 85.17839050293 58.900068961394 1.7198536396027 0.67200797796249 64 1 delete
09:43:17 59.740832 30.392493 72.90064239502 58.900039426908 1.6958360671997 295.25534057617 64 1 delete
09:43:08 59.740791 30.392590 58.134902954102 58.900017959815 0 314.83868408203 64 1 delete
09:43:03 59.740791 30.392590 56.489406585693 58.900017959815 0 300.21368408203 64 1 delete
09:42:59 59.740769 30.392708 47.665252685547 58.900005067895 1.4810894727707 292.33868408203 64 1 delete
09:42:53 59.740712 30.392823 3 60.299999999284 1.3970894813538 128.19999694824 64 1 delete
09:42:35 59.740586 30.392585 58.349235534668 61.600009569039 1.4985318183899 172.50521850586 64 1 delete
09:42:23 59.740693 30.392423 3 61.500000267231 1.4263089895248 69.5 64 1 delete
09:42:18 59.740624 30.392305 48.54167175293 61.600014189216 1.4855908155441 221.83854675293 64 1 delete
09:42:12 59.740686 30.392426 3 61.600000130424 1.5325826406479 259.70001220703 64 1 delete
09:42:08 59.740689 30.392531 3 62.999999999223 1.7093787193298 291 64 1 delete
09:41:57 59.741223 30.392906 199.86741638184 63.099731352611 1.6879905462265 311.33917236328 64 1 delete
09:41:48 59.741105 30.393060 174.71319580078 63.099598075986 1.677237033844 320.42248535156 64 1 delete
10:41:34 59.741090 30.393363 139.70086669922 63.099480371655 1.6683686971664 216.33915710449 64 0 delete
09:41:35 59.741090 30.393363 139.70086669922 63.099480371655 1.6683686971664 216.33915710449 64 1 delete
09:41:26 59.741169 30.393547 116.43236541748 63.099468424936 1.6661688089371 257.67248535156 64 1 delete
09:41:21 59.741151 30.393669 104.34082794189 63.099438062953 1.7260794639587 315.25582885742 64 1 delete
09:41:08 59.741018 30.393943 68.579132080078 63.099371351035 1.6474204063416 320.17248535156 64 1 delete
10:40:52 59.740908 30.393961 3 56.69999999965 0 0 64 0 delete
10:40:42 59.740908 30.393961 3 56.69999999965 0 0 64 0 delete
09:40:50 59.740908 30.393961 3 56.69999999965 0 0 64 1 delete